sensor_id;sensor_type;location;lat;lon;timestamp;P1;durP1;ratioP1;P2;durP2;ratioP2
16147;SDS011;8179;59.364;18.018;2023-06-26T00:01:32;51.13;;;49.03;;
16147;SDS011;8179;59.364;18.018;2023-06-26T00:03:59;39.80;;;38.30;;
16147;SDS011;8179;59.364;18.018;2023-06-26T00:06:25;45.80;;;43.80;;
16147;SDS011;8179;59.364;18.018;2023-06-26T00:08:52;44.53;;;42.67;;
16147;SDS011;8179;59.364;18.018;2023-06-26T00:11:19;61.25;;;59.08;;
16147;SDS011;8179;59.364;18.018;2023-06-26T00:13:47;74.25;;;71.57;;
16147;SDS011;8179;59.364;18.018;2023-06-26T00:16:14;117.65;;;113.88;;
16147;SDS011;8179;59.364;18.018;2023-06-26T00:18:40;256.80;;;248.52;;
16147;SDS011;8179;59.364;18.018;2023-06-26T00:21:07;266.70;;;258.45;;
16147;SDS011;8179;59.364;18.018;2023-06-26T00:23:33;200.13;;;193.70;;
16147;SDS011;8179;59.364;18.018;2023-06-26T00:26:02;253.07;;;245.13;;
16147;SDS011;8179;59.364;18.018;2023-06-26T00:28:28;268.90;;;260.52;;
16147;SDS011;8179;59.364;18.018;2023-06-26T00:30:56;294.00;;;283.95;;
16147;SDS011;8179;59.364;18.018;2023-06-26T00:33:23;383.23;;;368.98;;
16147;SDS011;8179;59.364;18.018;2023-06-26T00:35:49;358.90;;;346.27;;
16147;SDS011;8179;59.364;18.018;2023-06-26T00:38:16;511.08;;;490.92;;
16147;SDS011;8179;59.364;18.018;2023-06-26T00:40:43;362.42;;;349.58;;
16147;SDS011;8179;59.364;18.018;2023-06-26T00:43:09;77.03;;;74.38;;
16147;SDS011;8179;59.364;18.018;2023-06-26T00:45:36;86.50;;;83.55;;
16147;SDS011;8179;59.364;18.018;2023-06-26T00:48:04;115.60;;;111.72;;
16147;SDS011;8179;59.364;18.018;2023-06-26T00:50:31;157.40;;;151.95;;
16147;SDS011;8179;59.364;18.018;2023-06-26T00:52:58;186.95;;;180.55;;
16147;SDS011;8179;59.364;18.018;2023-06-26T00:55:26;189.45;;;183.18;;
16147;SDS011;8179;59.364;18.018;2023-06-26T00:57:53;181.90;;;176.13;;
16147;SDS011;8179;59.364;18.018;2023-06-26T01:00:20;357.15;;;345.20;;
16147;SDS011;8179;59.364;18.018;2023-06-26T01:02:46;462.92;;;446.08;;
16147;SDS011;8179;59.364;18.018;2023-06-26T01:05:14;490.98;;;471.65;;
16147;SDS011;8179;59.364;18.018;2023-06-26T01:07:46;501.73;;;482.55;;
16147;SDS011;8179;59.364;18.018;2023-06-26T01:10:13;529.05;;;507.85;;
16147;SDS011;8179;59.364;18.018;2023-06-26T01:12:39;645.70;;;616.92;;
16147;SDS011;8179;59.364;18.018;2023-06-26T01:15:06;611.17;;;584.72;;
16147;SDS011;8179;59.364;18.018;2023-06-26T01:17:33;584.95;;;559.38;;
16147;SDS011;8179;59.364;18.018;2023-06-26T01:20:01;633.85;;;605.70;;
16147;SDS011;8179;59.364;18.018;2023-06-26T01:22:34;619.78;;;592.78;;
16147;SDS011;8179;59.364;18.018;2023-06-26T01:25:12;693.72;;;660.55;;
16147;SDS011;8179;59.364;18.018;2023-06-26T01:27:45;636.45;;;608.28;;
16147;SDS011;8179;59.364;18.018;2023-06-26T01:30:11;639.60;;;611.30;;
16147;SDS011;8179;59.364;18.018;2023-06-26T01:32:38;735.05;;;698.78;;
16147;SDS011;8179;59.364;18.018;2023-06-26T01:35:06;774.53;;;734.60;;
16147;SDS011;8179;59.364;18.018;2023-06-26T01:37:33;802.10;;;761.75;;
16147;SDS011;8179;59.364;18.018;2023-06-26T01:39:59;830.38;;;786.90;;
16147;SDS011;8179;59.364;18.018;2023-06-26T01:42:26;821.67;;;778.58;;
16147;SDS011;8179;59.364;18.018;2023-06-26T01:44:54;698.63;;;665.28;;
16147;SDS011;8179;59.364;18.018;2023-06-26T01:47:23;755.38;;;717.63;;
16147;SDS011;8179;59.364;18.018;2023-06-26T01:49:52;687.03;;;654.55;;
16147;SDS011;8179;59.364;18.018;2023-06-26T01:52:21;784.60;;;744.40;;
16147;SDS011;8179;59.364;18.018;2023-06-26T01:54:53;780.15;;;739.88;;
16147;SDS011;8179;59.364;18.018;2023-06-26T01:57:20;745.33;;;708.78;;
16147;SDS011;8179;59.364;18.018;2023-06-26T01:59:47;700.85;;;667.10;;
16147;SDS011;8179;59.364;18.018;2023-06-26T02:02:16;705.33;;;671.83;;
16147;SDS011;8179;59.364;18.018;2023-06-26T02:04:42;744.00;;;706.65;;
16147;SDS011;8179;59.364;18.018;2023-06-26T02:07:09;768.10;;;729.53;;
16147;SDS011;8179;59.364;18.018;2023-06-26T02:09:35;816.78;;;774.50;;
16147;SDS011;8179;59.364;18.018;2023-06-26T02:12:02;832.60;;;788.28;;
16147;SDS011;8179;59.364;18.018;2023-06-26T02:14:29;840.72;;;796.17;;
16147;SDS011;8179;59.364;18.018;2023-06-26T02:16:55;898.22;;;850.35;;
16147;SDS011;8179;59.364;18.018;2023-06-26T02:19:23;873.85;;;826.97;;
16147;SDS011;8179;59.364;18.018;2023-06-26T02:21:50;869.15;;;822.45;;
16147;SDS011;8179;59.364;18.018;2023-06-26T02:24:17;829.85;;;786.00;;
16147;SDS011;8179;59.364;18.018;2023-06-26T02:26:43;775.95;;;736.40;;
16147;SDS011;8179;59.364;18.018;2023-06-26T02:29:10;853.05;;;808.22;;
16147;SDS011;8179;59.364;18.018;2023-06-26T02:31:37;823.55;;;779.97;;
16147;SDS011;8179;59.364;18.018;2023-06-26T02:34:04;790.38;;;750.15;;
16147;SDS011;8179;59.364;18.018;2023-06-26T02:36:32;862.03;;;815.70;;
16147;SDS011;8179;59.364;18.018;2023-06-26T02:38:58;867.72;;;821.10;;
16147;SDS011;8179;59.364;18.018;2023-06-26T02:41:25;879.58;;;833.05;;
16147;SDS011;8179;59.364;18.018;2023-06-26T02:43:51;895.90;;;847.65;;
16147;SDS011;8179;59.364;18.018;2023-06-26T02:46:18;887.30;;;839.65;;
16147;SDS011;8179;59.364;18.018;2023-06-26T02:48:44;832.13;;;788.40;;
16147;SDS011;8179;59.364;18.018;2023-06-26T02:51:11;1004.05;;;945.13;;
16147;SDS011;8179;59.364;18.018;2023-06-26T02:53:39;934.88;;;882.35;;
16147;SDS011;8179;59.364;18.018;2023-06-26T02:56:05;544.08;;;519.00;;
16147;SDS011;8179;59.364;18.018;2023-06-26T02:58:32;234.93;;;226.38;;
16147;SDS011;8179;59.364;18.018;2023-06-26T03:00:59;143.55;;;138.77;;
16147;SDS011;8179;59.364;18.018;2023-06-26T03:03:26;214.77;;;207.45;;
16147;SDS011;8179;59.364;18.018;2023-06-26T03:05:52;364.67;;;350.50;;
16147;SDS011;8179;59.364;18.018;2023-06-26T03:08:19;527.25;;;503.88;;
16147;SDS011;8179;59.364;18.018;2023-06-26T03:10:47;742.95;;;703.25;;
16147;SDS011;8179;59.364;18.018;2023-06-26T03:13:13;546.25;;;521.10;;
16147;SDS011;8179;59.364;18.018;2023-06-26T03:15:40;655.63;;;623.60;;
16147;SDS011;8179;59.364;18.018;2023-06-26T03:18:06;568.40;;;543.50;;
16147;SDS011;8179;59.364;18.018;2023-06-26T03:20:34;1604.00;;;849.97;;
16147;SDS011;8179;59.364;18.018;2023-06-26T03:23:01;127.05;;;122.55;;
16147;SDS011;8179;59.364;18.018;2023-06-26T03:25:27;1999.90;;;999.90;;
16147;SDS011;8179;59.364;18.018;2023-06-26T03:27:55;1999.90;;;999.90;;
16147;SDS011;8179;59.364;18.018;2023-06-26T03:30:22;1999.90;;;999.90;;
16147;SDS011;8179;59.364;18.018;2023-06-26T03:32:48;546.92;;;295.17;;
16147;SDS011;8179;59.364;18.018;2023-06-26T03:35:15;50.22;;;48.42;;
16147;SDS011;8179;59.364;18.018;2023-06-26T03:37:42;1999.90;;;999.90;;
16147;SDS011;8179;59.364;18.018;2023-06-26T03:40:09;345.42;;;329.73;;
16147;SDS011;8179;59.364;18.018;2023-06-26T03:42:35;300.30;;;287.98;;
16147;SDS011;8179;59.364;18.018;2023-06-26T03:45:04;1999.90;;;999.90;;
16147;SDS011;8179;59.364;18.018;2023-06-26T03:47:31;1999.90;;;999.90;;
16147;SDS011;8179;59.364;18.018;2023-06-26T03:49:57;1999.90;;;999.90;;
16147;SDS011;8179;59.364;18.018;2023-06-26T03:52:24;1999.90;;;999.90;;
16147;SDS011;8179;59.364;18.018;2023-06-26T03:54:50;1999.90;;;999.90;;
16147;SDS011;8179;59.364;18.018;2023-06-26T03:57:17;1999.90;;;999.90;;
16147;SDS011;8179;59.364;18.018;2023-06-26T03:59:44;1999.90;;;999.90;;
16147;SDS011;8179;59.364;18.018;2023-06-26T04:02:11;1999.90;;;999.90;;
16147;SDS011;8179;59.364;18.018;2023-06-26T04:04:38;1999.90;;;999.90;;
16147;SDS011;8179;59.364;18.018;2023-06-26T04:07:05;1999.90;;;999.90;;
16147;SDS011;8179;59.364;18.018;2023-06-26T04:09:31;1999.90;;;999.90;;
16147;SDS011;8179;59.364;18.018;2023-06-26T04:11:58;1999.90;;;999.90;;
16147;SDS011;8179;59.364;18.018;2023-06-26T04:14:25;1999.90;;;999.90;;
16147;SDS011;8179;59.364;18.018;2023-06-26T04:16:51;1999.90;;;999.90;;
16147;SDS011;8179;59.364;18.018;2023-06-26T04:19:19;1999.90;;;999.90;;
16147;SDS011;8179;59.364;18.018;2023-06-26T04:21:46;1999.90;;;999.90;;
16147;SDS011;8179;59.364;18.018;2023-06-26T04:24:12;1999.90;;;999.90;;
16147;SDS011;8179;59.364;18.018;2023-06-26T04:26:39;1999.90;;;999.90;;
16147;SDS011;8179;59.364;18.018;2023-06-26T04:29:06;1999.90;;;999.90;;
16147;SDS011;8179;59.364;18.018;2023-06-26T04:31:33;1999.90;;;999.90;;
16147;SDS011;8179;59.364;18.018;2023-06-26T04:33:59;1999.90;;;999.90;;
16147;SDS011;8179;59.364;18.018;2023-06-26T04:36:27;1999.90;;;999.90;;
16147;SDS011;8179;59.364;18.018;2023-06-26T04:38:54;1999.90;;;999.90;;
16147;SDS011;8179;59.364;18.018;2023-06-26T04:41:20;1999.90;;;999.90;;
16147;SDS011;8179;59.364;18.018;2023-06-26T04:43:47;1999.90;;;999.90;;
16147;SDS011;8179;59.364;18.018;2023-06-26T04:46:14;1999.90;;;999.90;;
16147;SDS011;8179;59.364;18.018;2023-06-26T04:48:40;1999.90;;;999.90;;
16147;SDS011;8179;59.364;18.018;2023-06-26T04:51:07;1999.90;;;999.90;;
16147;SDS011;8179;59.364;18.018;2023-06-26T04:53:35;1999.90;;;999.90;;
16147;SDS011;8179;59.364;18.018;2023-06-26T04:56:01;1999.90;;;999.90;;
16147;SDS011;8179;59.364;18.018;2023-06-26T04:58:28;1999.90;;;999.90;;
16147;SDS011;8179;59.364;18.018;2023-06-26T05:00:54;1999.90;;;999.90;;
16147;SDS011;8179;59.364;18.018;2023-06-26T05:03:21;1999.90;;;999.90;;
16147;SDS011;8179;59.364;18.018;2023-06-26T05:05:48;1999.90;;;999.90;;
16147;SDS011;8179;59.364;18.018;2023-06-26T05:08:16;1999.90;;;999.90;;
16147;SDS011;8179;59.364;18.018;2023-06-26T05:10:44;1999.90;;;999.90;;
16147;SDS011;8179;59.364;18.018;2023-06-26T05:13:11;1999.90;;;999.90;;
16147;SDS011;8179;59.364;18.018;2023-06-26T05:15:40;1999.90;;;999.90;;
16147;SDS011;8179;59.364;18.018;2023-06-26T05:18:06;1999.90;;;999.90;;
16147;SDS011;8179;59.364;18.018;2023-06-26T05:20:33;1999.90;;;999.90;;
16147;SDS011;8179;59.364;18.018;2023-06-26T05:23:00;1999.90;;;999.90;;
16147;SDS011;8179;59.364;18.018;2023-06-26T05:25:27;1999.90;;;999.90;;
16147;SDS011;8179;59.364;18.018;2023-06-26T05:27:57;1999.90;;;999.90;;
16147;SDS011;8179;59.364;18.018;2023-06-26T05:30:24;1999.90;;;999.90;;
16147;SDS011;8179;59.364;18.018;2023-06-26T05:32:51;1999.90;;;999.90;;
16147;SDS011;8179;59.364;18.018;2023-06-26T05:35:18;1999.90;;;999.90;;
16147;SDS011;8179;59.364;18.018;2023-06-26T05:37:46;1999.90;;;999.90;;
16147;SDS011;8179;59.364;18.018;2023-06-26T05:40:15;1999.90;;;999.90;;
16147;SDS011;8179;59.364;18.018;2023-06-26T05:42:41;1999.90;;;999.90;;
16147;SDS011;8179;59.364;18.018;2023-06-26T05:45:10;1999.90;;;999.90;;
16147;SDS011;8179;59.364;18.018;2023-06-26T05:47:37;1999.90;;;999.90;;
16147;SDS011;8179;59.364;18.018;2023-06-26T05:50:04;1999.90;;;999.90;;
16147;SDS011;8179;59.364;18.018;2023-06-26T05:52:31;1999.90;;;999.90;;
16147;SDS011;8179;59.364;18.018;2023-06-26T05:54:58;1999.90;;;999.90;;
16147;SDS011;8179;59.364;18.018;2023-06-26T05:57:25;1999.90;;;999.90;;
16147;SDS011;8179;59.364;18.018;2023-06-26T05:59:53;1999.90;;;999.90;;
16147;SDS011;8179;59.364;18.018;2023-06-26T06:02:21;1999.90;;;999.90;;
16147;SDS011;8179;59.364;18.018;2023-06-26T06:04:47;1999.90;;;999.90;;
16147;SDS011;8179;59.364;18.018;2023-06-26T06:07:14;1999.90;;;999.90;;
16147;SDS011;8179;59.364;18.018;2023-06-26T06:09:41;1999.90;;;999.90;;
16147;SDS011;8179;59.364;18.018;2023-06-26T06:12:08;1999.90;;;999.90;;
16147;SDS011;8179;59.364;18.018;2023-06-26T06:14:34;1999.90;;;999.90;;
16147;SDS011;8179;59.364;18.018;2023-06-26T06:17:01;1999.90;;;999.90;;
16147;SDS011;8179;59.364;18.018;2023-06-26T06:19:30;1999.90;;;999.90;;
16147;SDS011;8179;59.364;18.018;2023-06-26T06:21:56;1999.90;;;999.90;;
16147;SDS011;8179;59.364;18.018;2023-06-26T06:24:23;1999.90;;;999.90;;
16147;SDS011;8179;59.364;18.018;2023-06-26T06:26:49;1999.90;;;999.90;;
16147;SDS011;8179;59.364;18.018;2023-06-26T06:29:16;1999.90;;;999.90;;
16147;SDS011;8179;59.364;18.018;2023-06-26T06:31:44;1999.90;;;999.90;;
16147;SDS011;8179;59.364;18.018;2023-06-26T06:34:10;1999.90;;;999.90;;
16147;SDS011;8179;59.364;18.018;2023-06-26T06:36:39;1999.90;;;999.90;;
16147;SDS011;8179;59.364;18.018;2023-06-26T06:39:05;1999.90;;;999.90;;
16147;SDS011;8179;59.364;18.018;2023-06-26T06:41:32;1999.90;;;999.90;;
16147;SDS011;8179;59.364;18.018;2023-06-26T06:43:59;1999.90;;;999.90;;
16147;SDS011;8179;59.364;18.018;2023-06-26T06:46:25;1999.90;;;999.90;;
16147;SDS011;8179;59.364;18.018;2023-06-26T06:48:52;1999.90;;;999.90;;
16147;SDS011;8179;59.364;18.018;2023-06-26T06:51:19;1999.90;;;999.90;;
16147;SDS011;8179;59.364;18.018;2023-06-26T06:53:47;1999.90;;;999.90;;
16147;SDS011;8179;59.364;18.018;2023-06-26T06:56:14;1999.90;;;999.90;;
16147;SDS011;8179;59.364;18.018;2023-06-26T06:58:40;1999.90;;;999.90;;
16147;SDS011;8179;59.364;18.018;2023-06-26T07:01:07;1999.90;;;999.90;;
16147;SDS011;8179;59.364;18.018;2023-06-26T07:03:34;539.97;;;288.40;;
16147;SDS011;8179;59.364;18.018;2023-06-26T07:06:01;1999.90;;;999.90;;
16147;SDS011;8179;59.364;18.018;2023-06-26T07:08:28;1515.13;;;764.58;;
16147;SDS011;8179;59.364;18.018;2023-06-26T07:10:56;1999.90;;;999.90;;
16147;SDS011;8179;59.364;18.018;2023-06-26T07:13:23;554.72;;;302.92;;
16147;SDS011;8179;59.364;18.018;2023-06-26T07:15:49;65.90;;;63.75;;
16147;SDS011;8179;59.364;18.018;2023-06-26T07:18:16;81.03;;;78.28;;
16147;SDS011;8179;59.364;18.018;2023-06-26T07:20:43;54.75;;;52.55;;
16147;SDS011;8179;59.364;18.018;2023-06-26T07:23:09;85.45;;;82.45;;
16147;SDS011;8179;59.364;18.018;2023-06-26T07:25:36;91.43;;;88.43;;
16147;SDS011;8179;59.364;18.018;2023-06-26T07:28:05;92.32;;;88.90;;
16147;SDS011;8179;59.364;18.018;2023-06-26T07:30:35;424.67;;;406.83;;
16147;SDS011;8179;59.364;18.018;2023-06-26T07:33:02;325.42;;;313.80;;
16147;SDS011;8179;59.364;18.018;2023-06-26T07:35:29;732.15;;;689.13;;
16147;SDS011;8179;59.364;18.018;2023-06-26T07:37:55;660.00;;;624.00;;
16147;SDS011;8179;59.364;18.018;2023-06-26T07:40:22;783.50;;;733.30;;
16147;SDS011;8179;59.364;18.018;2023-06-26T07:42:48;216.00;;;208.93;;
16147;SDS011;8179;59.364;18.018;2023-06-26T07:45:16;522.72;;;497.13;;
16147;SDS011;8179;59.364;18.018;2023-06-26T07:47:43;336.92;;;321.92;;
16147;SDS011;8179;59.364;18.018;2023-06-26T07:50:10;337.58;;;323.60;;
16147;SDS011;8179;59.364;18.018;2023-06-26T07:52:36;744.65;;;705.00;;
16147;SDS011;8179;59.364;18.018;2023-06-26T07:55:03;708.75;;;667.70;;
16147;SDS011;8179;59.364;18.018;2023-06-26T07:57:30;154.73;;;149.50;;
16147;SDS011;8179;59.364;18.018;2023-06-26T07:59:57;816.38;;;766.17;;
16147;SDS011;8179;59.364;18.018;2023-06-26T08:02:25;827.17;;;776.30;;
16147;SDS011;8179;59.364;18.018;2023-06-26T08:04:51;595.30;;;561.45;;
16147;SDS011;8179;59.364;18.018;2023-06-26T08:07:18;568.58;;;531.35;;
16147;SDS011;8179;59.364;18.018;2023-06-26T08:09:45;318.70;;;307.02;;
16147;SDS011;8179;59.364;18.018;2023-06-26T08:12:11;994.78;;;923.17;;
16147;SDS011;8179;59.364;18.018;2023-06-26T08:14:38;607.10;;;567.83;;
16147;SDS011;8179;59.364;18.018;2023-06-26T08:17:04;1094.90;;;997.88;;
16147;SDS011;8179;59.364;18.018;2023-06-26T08:19:32;498.35;;;470.00;;
16147;SDS011;8179;59.364;18.018;2023-06-26T08:21:59;945.78;;;883.75;;
16147;SDS011;8179;59.364;18.018;2023-06-26T08:24:25;703.42;;;666.67;;
16147;SDS011;8179;59.364;18.018;2023-06-26T08:26:52;913.58;;;859.25;;
16147;SDS011;8179;59.364;18.018;2023-06-26T08:29:19;1025.88;;;953.83;;
16147;SDS011;8179;59.364;18.018;2023-06-26T08:31:45;851.75;;;802.13;;
16147;SDS011;8179;59.364;18.018;2023-06-26T08:34:12;253.98;;;245.27;;
16147;SDS011;8179;59.364;18.018;2023-06-26T08:36:40;791.72;;;747.75;;
16147;SDS011;8179;59.364;18.018;2023-06-26T08:39:06;640.92;;;608.42;;
16147;SDS011;8179;59.364;18.018;2023-06-26T08:41:33;423.55;;;404.85;;
16147;SDS011;8179;59.364;18.018;2023-06-26T08:44:01;433.60;;;414.58;;
16147;SDS011;8179;59.364;18.018;2023-06-26T08:46:27;1178.53;;;999.90;;
16147;SDS011;8179;59.364;18.018;2023-06-26T08:48:55;1156.10;;;999.90;;
16147;SDS011;8179;59.364;18.018;2023-06-26T08:51:21;752.63;;;704.00;;
16147;SDS011;8179;59.364;18.018;2023-06-26T08:53:52;710.20;;;670.78;;
16147;SDS011;8179;59.364;18.018;2023-06-26T08:56:21;414.05;;;394.48;;
16147;SDS011;8179;59.364;18.018;2023-06-26T08:58:48;358.23;;;343.80;;
16147;SDS011;8179;59.364;18.018;2023-06-26T09:01:16;348.80;;;335.42;;
16147;SDS011;8179;59.364;18.018;2023-06-26T09:03:44;920.55;;;863.42;;
16147;SDS011;8179;59.364;18.018;2023-06-26T09:06:10;920.08;;;860.58;;
16147;SDS011;8179;59.364;18.018;2023-06-26T09:08:37;979.53;;;918.78;;
16147;SDS011;8179;59.364;18.018;2023-06-26T09:11:05;275.77;;;265.88;;
16147;SDS011;8179;59.364;18.018;2023-06-26T09:13:31;200.45;;;193.88;;
16147;SDS011;8179;59.364;18.018;2023-06-26T09:15:58;150.55;;;143.05;;
16147;SDS011;8179;59.364;18.018;2023-06-26T09:18:24;196.88;;;190.23;;
16147;SDS011;8179;59.364;18.018;2023-06-26T09:20:51;110.65;;;106.97;;
16147;SDS011;8179;59.364;18.018;2023-06-26T09:23:18;202.55;;;195.75;;
16147;SDS011;8179;59.364;18.018;2023-06-26T09:25:44;128.98;;;124.68;;
16147;SDS011;8179;59.364;18.018;2023-06-26T09:28:14;293.58;;;283.83;;
16147;SDS011;8179;59.364;18.018;2023-06-26T09:30:41;100.13;;;96.95;;
16147;SDS011;8179;59.364;18.018;2023-06-26T09:33:12;244.10;;;235.98;;
16147;SDS011;8179;59.364;18.018;2023-06-26T09:35:39;254.80;;;246.20;;
16147;SDS011;8179;59.364;18.018;2023-06-26T09:38:06;158.43;;;152.75;;
16147;SDS011;8179;59.364;18.018;2023-06-26T09:40:33;226.45;;;218.80;;
16147;SDS011;8179;59.364;18.018;2023-06-26T09:43:02;110.93;;;106.70;;
16147;SDS011;8179;59.364;18.018;2023-06-26T09:45:30;294.02;;;283.77;;
16147;SDS011;8179;59.364;18.018;2023-06-26T09:47:59;326.27;;;314.63;;
16147;SDS011;8179;59.364;18.018;2023-06-26T09:50:26;573.88;;;547.33;;
16147;SDS011;8179;59.364;18.018;2023-06-26T09:52:53;275.85;;;265.58;;
16147;SDS011;8179;59.364;18.018;2023-06-26T09:55:19;268.23;;;258.15;;
16147;SDS011;8179;59.364;18.018;2023-06-26T09:57:46;88.55;;;85.43;;
16147;SDS011;8179;59.364;18.018;2023-06-26T10:00:14;92.68;;;89.60;;
16147;SDS011;8179;59.364;18.018;2023-06-26T10:02:42;119.93;;;116.10;;
16147;SDS011;8179;59.364;18.018;2023-06-26T10:05:09;173.63;;;168.07;;
16147;SDS011;8179;59.364;18.018;2023-06-26T10:07:35;76.70;;;74.25;;
16147;SDS011;8179;59.364;18.018;2023-06-26T10:10:03;338.45;;;325.40;;
16147;SDS011;8179;59.364;18.018;2023-06-26T10:12:31;438.80;;;421.58;;
16147;SDS011;8179;59.364;18.018;2023-06-26T10:14:58;152.43;;;147.05;;
16147;SDS011;8179;59.364;18.018;2023-06-26T10:17:27;356.02;;;341.38;;
16147;SDS011;8179;59.364;18.018;2023-06-26T10:19:56;123.18;;;119.03;;
16147;SDS011;8179;59.364;18.018;2023-06-26T10:22:25;203.05;;;196.30;;
16147;SDS011;8179;59.364;18.018;2023-06-26T10:24:53;331.60;;;317.38;;
16147;SDS011;8179;59.364;18.018;2023-06-26T10:27:23;420.70;;;404.33;;
16147;SDS011;8179;59.364;18.018;2023-06-26T10:29:53;509.92;;;488.20;;
16147;SDS011;8179;59.364;18.018;2023-06-26T10:32:20;510.75;;;488.67;;
16147;SDS011;8179;59.364;18.018;2023-06-26T10:34:47;461.73;;;442.60;;
16147;SDS011;8179;59.364;18.018;2023-06-26T10:37:15;172.23;;;166.00;;
16147;SDS011;8179;59.364;18.018;2023-06-26T10:39:48;454.08;;;435.42;;
16147;SDS011;8179;59.364;18.018;2023-06-26T10:42:15;155.05;;;149.95;;
16147;SDS011;8179;59.364;18.018;2023-06-26T10:44:42;204.90;;;198.20;;
16147;SDS011;8179;59.364;18.018;2023-06-26T10:47:09;427.92;;;411.45;;
16147;SDS011;8179;59.364;18.018;2023-06-26T10:49:36;360.15;;;345.88;;
16147;SDS011;8179;59.364;18.018;2023-06-26T10:52:04;176.73;;;171.18;;
16147;SDS011;8179;59.364;18.018;2023-06-26T10:54:32;91.20;;;87.68;;
16147;SDS011;8179;59.364;18.018;2023-06-26T10:56:59;167.27;;;161.18;;
16147;SDS011;8179;59.364;18.018;2023-06-26T10:59:26;283.77;;;274.25;;
16147;SDS011;8179;59.364;18.018;2023-06-26T11:01:56;283.55;;;273.02;;
16147;SDS011;8179;59.364;18.018;2023-06-26T11:04:35;266.63;;;257.13;;
16147;SDS011;8179;59.364;18.018;2023-06-26T11:07:14;226.82;;;218.88;;
16147;SDS011;8179;59.364;18.018;2023-06-26T11:09:54;76.93;;;74.28;;
16147;SDS011;8179;59.364;18.018;2023-06-26T11:12:37;115.63;;;111.60;;
16147;SDS011;8179;59.364;18.018;2023-06-26T11:15:04;72.70;;;70.18;;
16147;SDS011;8179;59.364;18.018;2023-06-26T11:17:34;77.38;;;74.70;;
16147;SDS011;8179;59.364;18.018;2023-06-26T11:20:00;107.13;;;103.63;;
16147;SDS011;8179;59.364;18.018;2023-06-26T11:22:27;96.43;;;93.10;;
16147;SDS011;8179;59.364;18.018;2023-06-26T11:24:55;114.13;;;110.38;;
16147;SDS011;8179;59.364;18.018;2023-06-26T11:27:31;93.95;;;90.57;;
16147;SDS011;8179;59.364;18.018;2023-06-26T11:29:57;89.63;;;86.65;;
16147;SDS011;8179;59.364;18.018;2023-06-26T11:32:25;283.85;;;274.23;;
16147;SDS011;8179;59.364;18.018;2023-06-26T11:34:52;191.95;;;184.98;;
16147;SDS011;8179;59.364;18.018;2023-06-26T11:37:21;127.55;;;123.35;;
16147;SDS011;8179;59.364;18.018;2023-06-26T11:39:48;136.60;;;131.90;;
16147;SDS011;8179;59.364;18.018;2023-06-26T11:42:15;112.80;;;109.25;;
16147;SDS011;8179;59.364;18.018;2023-06-26T11:44:42;189.13;;;182.40;;
16147;SDS011;8179;59.364;18.018;2023-06-26T11:47:12;188.25;;;182.13;;
16147;SDS011;8179;59.364;18.018;2023-06-26T11:49:38;206.18;;;199.10;;
16147;SDS011;8179;59.364;18.018;2023-06-26T11:52:08;1114.65;;;610.70;;
16147;SDS011;8179;59.364;18.018;2023-06-26T11:54:34;74.28;;;71.78;;
16147;SDS011;8179;59.364;18.018;2023-06-26T11:57:01;100.78;;;97.45;;
16147;SDS011;8179;59.364;18.018;2023-06-26T11:59:35;125.80;;;121.72;;
16147;SDS011;8179;59.364;18.018;2023-06-26T12:02:05;60.13;;;57.88;;
16147;SDS011;8179;59.364;18.018;2023-06-26T12:04:32;65.85;;;63.75;;
16147;SDS011;8179;59.364;18.018;2023-06-26T12:07:00;76.13;;;73.55;;
16147;SDS011;8179;59.364;18.018;2023-06-26T12:09:29;66.70;;;64.47;;
16147;SDS011;8179;59.364;18.018;2023-06-26T12:11:56;90.78;;;87.90;;
16147;SDS011;8179;59.364;18.018;2023-06-26T12:14:23;72.55;;;70.03;;
16147;SDS011;8179;59.364;18.018;2023-06-26T12:16:52;100.57;;;97.47;;
16147;SDS011;8179;59.364;18.018;2023-06-26T12:19:23;102.95;;;99.03;;
16147;SDS011;8179;59.364;18.018;2023-06-26T12:21:50;203.00;;;196.38;;
16147;SDS011;8179;59.364;18.018;2023-06-26T12:24:18;134.30;;;130.00;;
16147;SDS011;8179;59.364;18.018;2023-06-26T12:26:45;145.07;;;140.50;;
16147;SDS011;8179;59.364;18.018;2023-06-26T12:29:12;112.60;;;109.05;;
16147;SDS011;8179;59.364;18.018;2023-06-26T12:31:39;138.00;;;133.68;;
16147;SDS011;8179;59.364;18.018;2023-06-26T12:34:10;126.63;;;122.57;;
16147;SDS011;8179;59.364;18.018;2023-06-26T12:36:40;163.43;;;158.02;;
16147;SDS011;8179;59.364;18.018;2023-06-26T12:39:09;238.45;;;230.15;;
16147;SDS011;8179;59.364;18.018;2023-06-26T12:41:36;233.10;;;225.60;;
16147;SDS011;8179;59.364;18.018;2023-06-26T12:44:15;287.58;;;278.60;;
16147;SDS011;8179;59.364;18.018;2023-06-26T12:46:42;236.07;;;228.45;;
16147;SDS011;8179;59.364;18.018;2023-06-26T12:49:10;301.10;;;290.65;;
16147;SDS011;8179;59.364;18.018;2023-06-26T12:51:38;283.90;;;275.05;;
16147;SDS011;8179;59.364;18.018;2023-06-26T12:54:05;236.95;;;229.50;;
16147;SDS011;8179;59.364;18.018;2023-06-26T12:56:31;316.55;;;306.42;;
16147;SDS011;8179;59.364;18.018;2023-06-26T12:58:58;283.00;;;274.25;;
16147;SDS011;8179;59.364;18.018;2023-06-26T13:01:26;352.15;;;340.35;;
16147;SDS011;8179;59.364;18.018;2023-06-26T13:03:53;295.33;;;286.38;;
16147;SDS011;8179;59.364;18.018;2023-06-26T13:06:21;306.40;;;296.73;;
16147;SDS011;8179;59.364;18.018;2023-06-26T13:08:47;326.50;;;316.02;;
16147;SDS011;8179;59.364;18.018;2023-06-26T13:11:14;324.13;;;313.92;;
16147;SDS011;8179;59.364;18.018;2023-06-26T13:13:42;297.73;;;288.48;;
16147;SDS011;8179;59.364;18.018;2023-06-26T13:16:08;319.25;;;308.90;;
16147;SDS011;8179;59.364;18.018;2023-06-26T13:18:35;303.85;;;294.05;;
16147;SDS011;8179;59.364;18.018;2023-06-26T13:21:01;290.48;;;281.65;;
16147;SDS011;8179;59.364;18.018;2023-06-26T13:23:29;328.17;;;317.25;;
16147;SDS011;8179;59.364;18.018;2023-06-26T13:25:56;262.58;;;253.75;;
16147;SDS011;8179;59.364;18.018;2023-06-26T13:28:22;247.75;;;240.07;;
16147;SDS011;8179;59.364;18.018;2023-06-26T13:30:49;251.90;;;244.25;;
16147;SDS011;8179;59.364;18.018;2023-06-26T13:33:16;279.88;;;271.23;;
16147;SDS011;8179;59.364;18.018;2023-06-26T13:35:42;301.10;;;289.92;;
16147;SDS011;8179;59.364;18.018;2023-06-26T13:38:09;264.80;;;255.60;;
16147;SDS011;8179;59.364;18.018;2023-06-26T13:40:37;194.57;;;188.70;;
16147;SDS011;8179;59.364;18.018;2023-06-26T13:43:03;246.73;;;239.23;;
16147;SDS011;8179;59.364;18.018;2023-06-26T13:45:30;220.00;;;212.98;;
16147;SDS011;8179;59.364;18.018;2023-06-26T13:47:56;256.52;;;247.77;;
16147;SDS011;8179;59.364;18.018;2023-06-26T13:50:23;260.42;;;252.18;;
16147;SDS011;8179;59.364;18.018;2023-06-26T13:52:49;217.55;;;210.85;;
16147;SDS011;8179;59.364;18.018;2023-06-26T13:55:16;201.10;;;194.90;;
16147;SDS011;8179;59.364;18.018;2023-06-26T13:57:44;279.65;;;271.02;;